Jimmy P Lafont — WYT9490 — position and weather

sailwx.info

Track history (hours):
 
Tides and Currents Weather Stations Pressure Air Temp Water Temp Dewpoint Dewpoint Depression Visibility Wind Speed Wind Dir Waves Ship Positions

Jimmy P Lafont

Owner: CALLAIS & SONS INC, CUTOFF, LA. More information available from US FCC via Universal Licensing System and Coast Guard Vessel Documentation Center.

Last reported at 2018-Jan-22 23:59 UTC. Time now 2018-Jan-23 00:08 UTC.
Position N 29°42' W 095°01'.

Length 21 m; draft 2.7 m.

Type: . MMSI: 367005230.

Date/timePositionNaut miles runAvg speedWind from/ knotsBaromVisibWave heightAir tempDewpointWater temp
2018-Jan-22 23:59N 29°42' W 095°01'1 0.1
2018-Jan-22 10:47N 29°43' W 095°01'2 5.1
2018-Jan-22 10:29N 29°42' W 094°60'3 5.9
2018-Jan-22 10:00N 29°39' W 094°58'3 5.0
2018-Jan-22 09:30N 29°37' W 094°58'3 5.4
2018-Jan-22 09:00N 29°37' W 095°01'0 0.2
2018-Jan-22 08:30N 29°37' W 095°01'0 0.0
2018-Jan-22 08:00N 29°37' W 095°01'0 0.0
2018-Jan-22 07:30N 29°37' W 095°01'0 0.0
2018-Jan-22 07:00N 29°37' W 095°01'0 0.0
2018-Jan-22 06:18N 29°37' W 095°01'0 0.0
2018-Jan-22 06:00N 29°37' W 095°01'0 0.0
2018-Jan-22 05:30N 29°37' W 095°01'0 0.0
2018-Jan-22 05:00N 29°37' W 095°01'0 0.0
2018-Jan-22 04:30N 29°37' W 095°01'0 0.0
2018-Jan-22 04:00N 29°37' W 095°01'0 0.0
2018-Jan-22 03:30N 29°37' W 095°01'0 0.0
2018-Jan-22 03:00N 29°37' W 095°01'0 0.0
2018-Jan-22 02:27N 29°37' W 095°01'0 0.0
2018-Jan-22 02:00N 29°37' W 095°01'0 0.0
2018-Jan-22 01:30N 29°37' W 095°01'0 0.0
2018-Jan-22 00:57N 29°37' W 095°01'0 0.0
2018-Jan-22 00:30N 29°37' W 095°01'0 0.0
2018-Jan-22 00:00N 29°37' W 095°01'0 0.0
2018-Jan-21 23:30N 29°37' W 095°01'0 0.0
2018-Jan-21 23:00N 29°37' W 095°01'0 0.0
2018-Jan-21 22:30N 29°37' W 095°01'0 0.0
2018-Jan-21 22:00N 29°37' W 095°01'0 0.0
2018-Jan-21 21:30N 29°37' W 095°01'0 0.0
2018-Jan-21 21:00N 29°37' W 095°01'0 0.0
2018-Jan-21 20:27N 29°37' W 095°01'0 0.1
2018-Jan-21 20:00N 29°37' W 095°01'1 2.4
2018-Jan-21 19:30N 29°37' W 095°00'1 2.3
2018-Jan-21 18:57N 29°37' W 095°01'0 0.0
2018-Jan-21 18:26N 29°37' W 095°01'0 0.0
2018-Jan-21 17:59N 29°37' W 095°01'0 0.0
2018-Jan-21 17:29N 29°37' W 095°01'0 0.0
2018-Jan-21 16:59N 29°37' W 095°01'0 0.0
2018-Jan-21 16:23N 29°37' W 095°01'0 0.0
2018-Jan-21 15:56N 29°37' W 095°01'0 0.0
2018-Jan-21 15:26N 29°37' W 095°01'0 0.0
2018-Jan-21 14:59N 29°37' W 095°01'0 0.0
2018-Jan-21 14:29N 29°37' W 095°01'0 0.0
2018-Jan-21 13:59N 29°37' W 095°01'0 0.0
2018-Jan-21 13:20N 29°37' W 095°01'0 0.0
2018-Jan-21 12:59N 29°37' W 095°01'0 0.0
2018-Jan-21 12:29N 29°37' W 095°01'0 0.0
2018-Jan-21 11:47N 29°37' W 095°01'0 0.0
2018-Jan-21 11:26N 29°37' W 095°01'0 0.0
2018-Jan-21 10:56N 29°37' W 095°01'0 0.0
2018-Jan-21 10:29N 29°37' W 095°01'0 0.0
2018-Jan-21 09:59N 29°37' W 095°01'0 0.0
2018-Jan-21 09:29N 29°37' W 095°01'0 0.0
2018-Jan-21 08:59N 29°37' W 095°01'0 0.0
2018-Jan-21 08:29N 29°37' W 095°01'0 0.0
2018-Jan-21 07:59N 29°37' W 095°01'0 0.0
2018-Jan-21 07:23N 29°37' W 095°01'0 0.0
2018-Jan-21 06:59N 29°37' W 095°01'0 0.0
2018-Jan-21 06:29N 29°37' W 095°01'0 0.0
2018-Jan-21 05:59N 29°37' W 095°01'0 0.0
2018-Jan-21 05:29N 29°37' W 095°01'0 0.0
2018-Jan-21 04:59N 29°37' W 095°01'0 0.0
2018-Jan-21 04:29N 29°37' W 095°01'0 0.0
2018-Jan-21 03:59N 29°37' W 095°01'0 0.0
2018-Jan-21 03:26N 29°37' W 095°01'0 0.0
2018-Jan-21 02:56N 29°37' W 095°01'0 0.0
2018-Jan-21 02:29N 29°37' W 095°01'0 0.0
2018-Jan-21 01:56N 29°37' W 095°01'0 0.0
2018-Jan-21 01:26N 29°37' W 095°01'0 0.0
2018-Jan-21 00:59N 29°37' W 095°01'0 0.0
2018-Jan-21 00:29N 29°37' W 095°01'0 0.0
2018-Jan-20 23:59N 29°37' W 095°01'0 0.0
2018-Jan-20 23:29N 29°37' W 095°01'0 0.0
2018-Jan-20 22:56N 29°37' W 095°01'0 0.0
2018-Jan-20 22:29N 29°37' W 095°01'0 0.0
2018-Jan-20 21:59N 29°37' W 095°01'0 0.0
2018-Jan-20 21:29N 29°37' W 095°01'0 0.0
2018-Jan-20 20:56N 29°37' W 095°01'0 0.0
2018-Jan-20 20:26N 29°37' W 095°01'0 0.0
2018-Jan-20 19:59N 29°37' W 095°01'0 0.0
2018-Jan-20 19:29N 29°37' W 095°01'0 0.0
2018-Jan-20 18:59N 29°37' W 095°01'0 0.0
2018-Jan-20 18:26N 29°37' W 095°01'0 0.0
2018-Jan-20 17:53N 29°37' W 095°01'0 0.0
2018-Jan-20 17:29N 29°37' W 095°01'0 0.0
2018-Jan-20 16:59N 29°37' W 095°01'0 0.0
2018-Jan-20 16:26N 29°37' W 095°01'0 0.2
2018-Jan-20 15:58N 29°37' W 095°01'0 0.2
2018-Jan-20 15:30N 29°37' W 095°01'0 0.0
2018-Jan-20 15:00N 29°37' W 095°01'0 0.0
2018-Jan-20 14:30N 29°37' W 095°01'0 0.0
2018-Jan-20 14:00N 29°37' W 095°01'0 0.0
2018-Jan-20 13:30N 29°37' W 095°01'0 0.0
2018-Jan-20 12:57N 29°37' W 095°01'0 0.0
2018-Jan-20 12:27N 29°37' W 095°01'0 0.0
2018-Jan-20 12:00N 29°37' W 095°01'0 0.0
2018-Jan-20 11:30N 29°37' W 095°01'0 0.0
2018-Jan-20 11:00N 29°37' W 095°01'0 0.0
2018-Jan-20 10:30N 29°37' W 095°01'0 0.0
2018-Jan-20 09:54N 29°37' W 095°01'0 0.0
2018-Jan-20 09:24N 29°37' W 095°01'0 0.5
2018-Jan-20 08:59N 29°37' W 095°01'3 5.4
2018-Jan-20 08:30N 29°37' W 094°58'2 3.1
2018-Jan-20 08:00N 29°38' W 094°58'5 7.3
2018-Jan-20 07:23N 29°42' W 095°01'  
Track history (hours):
 
Tides and Currents Weather Stations Pressure Air Temp Water Temp Dewpoint Dewpoint Depression Visibility Wind Speed Wind Dir Waves Ship Positions

Jimmy P Lafont

Owner: CALLAIS & SONS INC, CUTOFF, LA. More information available from US FCC via Universal Licensing System and Coast Guard Vessel Documentation Center.

Last reported at 2018-Jan-22 23:59 UTC. Time now 2018-Jan-23 00:08 UTC.
Position N 29°42' W 095°01'.

Length 21 m; draft 2.7 m.

Type: . MMSI: 367005230.

Date/timePositionNaut miles runAvg speedWind from/ knotsBaromVisibWave heightAir tempDewpointWater temp
2018-Jan-22 23:59N 29°42' W 095°01'1 0.1
2018-Jan-22 10:47N 29°43' W 095°01'2 5.1
2018-Jan-22 10:29N 29°42' W 094°60'3 5.9
2018-Jan-22 10:00N 29°39' W 094°58'3 5.0
2018-Jan-22 09:30N 29°37' W 094°58'3 5.4
2018-Jan-22 09:00N 29°37' W 095°01'0 0.2
2018-Jan-22 08:30N 29°37' W 095°01'0 0.0
2018-Jan-22 08:00N 29°37' W 095°01'0 0.0
2018-Jan-22 07:30N 29°37' W 095°01'0 0.0
2018-Jan-22 07:00N 29°37' W 095°01'0 0.0
2018-Jan-22 06:18N 29°37' W 095°01'0 0.0
2018-Jan-22 06:00N 29°37' W 095°01'0 0.0
2018-Jan-22 05:30N 29°37' W 095°01'0 0.0
2018-Jan-22 05:00N 29°37' W 095°01'0 0.0
2018-Jan-22 04:30N 29°37' W 095°01'0 0.0
2018-Jan-22 04:00N 29°37' W 095°01'0 0.0
2018-Jan-22 03:30N 29°37' W 095°01'0 0.0
2018-Jan-22 03:00N 29°37' W 095°01'0 0.0
2018-Jan-22 02:27N 29°37' W 095°01'0 0.0
2018-Jan-22 02:00N 29°37' W 095°01'0 0.0
2018-Jan-22 01:30N 29°37' W 095°01'0 0.0
2018-Jan-22 00:57N 29°37' W 095°01'0 0.0
2018-Jan-22 00:30N 29°37' W 095°01'0 0.0
2018-Jan-22 00:00N 29°37' W 095°01'0 0.0
2018-Jan-21 23:30N 29°37' W 095°01'0 0.0
2018-Jan-21 23:00N 29°37' W 095°01'0 0.0
2018-Jan-21 22:30N 29°37' W 095°01'0 0.0
2018-Jan-21 22:00N 29°37' W 095°01'0 0.0
2018-Jan-21 21:30N 29°37' W 095°01'0 0.0
2018-Jan-21 21:00N 29°37' W 095°01'0 0.0
2018-Jan-21 20:27N 29°37' W 095°01'0 0.1
2018-Jan-21 20:00N 29°37' W 095°01'1 2.4
2018-Jan-21 19:30N 29°37' W 095°00'1 2.3
2018-Jan-21 18:57N 29°37' W 095°01'0 0.0
2018-Jan-21 18:26N 29°37' W 095°01'0 0.0
2018-Jan-21 17:59N 29°37' W 095°01'0 0.0
2018-Jan-21 17:29N 29°37' W 095°01'0 0.0
2018-Jan-21 16:59N 29°37' W 095°01'0 0.0
2018-Jan-21 16:23N 29°37' W 095°01'0 0.0
2018-Jan-21 15:56N 29°37' W 095°01'0 0.0
2018-Jan-21 15:26N 29°37' W 095°01'0 0.0
2018-Jan-21 14:59N 29°37' W 095°01'0 0.0
2018-Jan-21 14:29N 29°37' W 095°01'0 0.0
2018-Jan-21 13:59N 29°37' W 095°01'0 0.0
2018-Jan-21 13:20N 29°37' W 095°01'0 0.0
2018-Jan-21 12:59N 29°37' W 095°01'0 0.0
2018-Jan-21 12:29N 29°37' W 095°01'0 0.0
2018-Jan-21 11:47N 29°37' W 095°01'0 0.0
2018-Jan-21 11:26N 29°37' W 095°01'0 0.0
2018-Jan-21 10:56N 29°37' W 095°01'0 0.0
2018-Jan-21 10:29N 29°37' W 095°01'0 0.0
2018-Jan-21 09:59N 29°37' W 095°01'0 0.0
2018-Jan-21 09:29N 29°37' W 095°01'0 0.0
2018-Jan-21 08:59N 29°37' W 095°01'0 0.0
2018-Jan-21 08:29N 29°37' W 095°01'0 0.0
2018-Jan-21 07:59N 29°37' W 095°01'0 0.0
2018-Jan-21 07:23N 29°37' W 095°01'0 0.0
2018-Jan-21 06:59N 29°37' W 095°01'0 0.0
2018-Jan-21 06:29N 29°37' W 095°01'0 0.0
2018-Jan-21 05:59N 29°37' W 095°01'0 0.0
2018-Jan-21 05:29N 29°37' W 095°01'0 0.0
2018-Jan-21 04:59N 29°37' W 095°01'0 0.0
2018-Jan-21 04:29N 29°37' W 095°01'0 0.0
2018-Jan-21 03:59N 29°37' W 095°01'0 0.0
2018-Jan-21 03:26N 29°37' W 095°01'0 0.0
2018-Jan-21 02:56N 29°37' W 095°01'0 0.0
2018-Jan-21 02:29N 29°37' W 095°01'0 0.0
2018-Jan-21 01:56N 29°37' W 095°01'0 0.0
2018-Jan-21 01:26N 29°37' W 095°01'0 0.0
2018-Jan-21 00:59N 29°37' W 095°01'0 0.0
2018-Jan-21 00:29N 29°37' W 095°01'0 0.0
2018-Jan-20 23:59N 29°37' W 095°01'0 0.0
2018-Jan-20 23:29N 29°37' W 095°01'0 0.0
2018-Jan-20 22:56N 29°37' W 095°01'0 0.0
2018-Jan-20 22:29N 29°37' W 095°01'0 0.0
2018-Jan-20 21:59N 29°37' W 095°01'0 0.0
2018-Jan-20 21:29N 29°37' W 095°01'0 0.0
2018-Jan-20 20:56N 29°37' W 095°01'0 0.0
2018-Jan-20 20:26N 29°37' W 095°01'0 0.0
2018-Jan-20 19:59N 29°37' W 095°01'0 0.0
2018-Jan-20 19:29N 29°37' W 095°01'0 0.0
2018-Jan-20 18:59N 29°37' W 095°01'0 0.0
2018-Jan-20 18:26N 29°37' W 095°01'0 0.0
2018-Jan-20 17:53N 29°37' W 095°01'0 0.0
2018-Jan-20 17:29N 29°37' W 095°01'0 0.0
2018-Jan-20 16:59N 29°37' W 095°01'0 0.0
2018-Jan-20 16:26N 29°37' W 095°01'0 0.2
2018-Jan-20 15:58N 29°37' W 095°01'0 0.2
2018-Jan-20 15:30N 29°37' W 095°01'0 0.0
2018-Jan-20 15:00N 29°37' W 095°01'0 0.0
2018-Jan-20 14:30N 29°37' W 095°01'0 0.0
2018-Jan-20 14:00N 29°37' W 095°01'0 0.0
2018-Jan-20 13:30N 29°37' W 095°01'0 0.0
2018-Jan-20 12:57N 29°37' W 095°01'0 0.0
2018-Jan-20 12:27N 29°37' W 095°01'0 0.0
2018-Jan-20 12:00N 29°37' W 095°01'0 0.0
2018-Jan-20 11:30N 29°37' W 095°01'0 0.0
2018-Jan-20 11:00N 29°37' W 095°01'0 0.0
2018-Jan-20 10:30N 29°37' W 095°01'0 0.0
2018-Jan-20 09:54N 29°37' W 095°01'0 0.0
2018-Jan-20 09:24N 29°37' W 095°01'0 0.5
2018-Jan-20 08:59N 29°37' W 095°01'3 5.4
2018-Jan-20 08:30N 29°37' W 094°58'2 3.1
2018-Jan-20 08:00N 29°38' W 094°58'5 7.3
2018-Jan-20 07:23N 29°42' W 095°01'  

Dump ship's entire track history